sensor_id;sensor_type;location;lat;lon;timestamp;P1;durP1;ratioP1;P2;durP2;ratioP2
5730;SDS011;2890;51.950;7.668;2024-01-06T00:02:20;15.30;;;11.07;;
5730;SDS011;2890;51.950;7.668;2024-01-06T00:04:46;17.47;;;10.97;;
5730;SDS011;2890;51.950;7.668;2024-01-06T00:07:12;14.27;;;10.60;;
5730;SDS011;2890;51.950;7.668;2024-01-06T00:09:39;15.30;;;11.43;;
5730;SDS011;2890;51.950;7.668;2024-01-06T00:12:06;15.00;;;10.67;;
5730;SDS011;2890;51.950;7.668;2024-01-06T00:14:32;16.70;;;11.47;;
5730;SDS011;2890;51.950;7.668;2024-01-06T00:16:59;18.07;;;12.47;;
5730;SDS011;2890;51.950;7.668;2024-01-06T00:19:27;14.90;;;11.10;;
5730;SDS011;2890;51.950;7.668;2024-01-06T00:21:53;19.30;;;13.00;;
5730;SDS011;2890;51.950;7.668;2024-01-06T00:24:20;18.67;;;12.67;;
5730;SDS011;2890;51.950;7.668;2024-01-06T00:26:46;18.77;;;12.90;;
5730;SDS011;2890;51.950;7.668;2024-01-06T00:29:13;20.00;;;12.80;;
5730;SDS011;2890;51.950;7.668;2024-01-06T00:31:39;18.87;;;12.90;;
5730;SDS011;2890;51.950;7.668;2024-01-06T00:34:06;19.67;;;12.20;;
5730;SDS011;2890;51.950;7.668;2024-01-06T00:36:33;20.53;;;12.70;;
5730;SDS011;2890;51.950;7.668;2024-01-06T00:39:00;19.63;;;12.73;;
5730;SDS011;2890;51.950;7.668;2024-01-06T00:41:26;21.53;;;13.97;;
5730;SDS011;2890;51.950;7.668;2024-01-06T00:43:53;20.60;;;12.60;;
5730;SDS011;2890;51.950;7.668;2024-01-06T00:46:19;23.83;;;13.27;;
5730;SDS011;2890;51.950;7.668;2024-01-06T00:48:45;22.43;;;12.90;;
5730;SDS011;2890;51.950;7.668;2024-01-06T00:51:12;24.60;;;14.37;;
5730;SDS011;2890;51.950;7.668;2024-01-06T00:53:40;21.33;;;12.90;;
5730;SDS011;2890;51.950;7.668;2024-01-06T00:56:06;21.00;;;13.37;;
5730;SDS011;2890;51.950;7.668;2024-01-06T00:58:33;21.90;;;13.50;;
5730;SDS011;2890;51.950;7.668;2024-01-06T01:00:59;23.87;;;13.87;;
5730;SDS011;2890;51.950;7.668;2024-01-06T01:03:25;22.87;;;14.07;;
5730;SDS011;2890;51.950;7.668;2024-01-06T01:05:52;26.50;;;14.40;;
5730;SDS011;2890;51.950;7.668;2024-01-06T01:08:18;24.20;;;13.60;;
5730;SDS011;2890;51.950;7.668;2024-01-06T01:10:46;24.53;;;14.77;;
5730;SDS011;2890;51.950;7.668;2024-01-06T01:13:13;22.03;;;14.20;;
5730;SDS011;2890;51.950;7.668;2024-01-06T01:15:39;27.70;;;15.30;;
5730;SDS011;2890;51.950;7.668;2024-01-06T01:18:06;23.27;;;15.13;;
5730;SDS011;2890;51.950;7.668;2024-01-06T01:20:32;22.37;;;14.73;;
5730;SDS011;2890;51.950;7.668;2024-01-06T01:22:58;22.53;;;14.10;;
5730;SDS011;2890;51.950;7.668;2024-01-06T01:25:25;20.60;;;13.60;;
5730;SDS011;2890;51.950;7.668;2024-01-06T01:27:53;24.00;;;14.37;;
5730;SDS011;2890;51.950;7.668;2024-01-06T01:30:19;24.90;;;15.03;;
5730;SDS011;2890;51.950;7.668;2024-01-06T01:32:46;26.30;;;15.77;;
5730;SDS011;2890;51.950;7.668;2024-01-06T01:35:12;24.00;;;14.87;;
5730;SDS011;2890;51.950;7.668;2024-01-06T01:37:39;23.93;;;15.80;;
5730;SDS011;2890;51.950;7.668;2024-01-06T01:40:07;23.87;;;13.80;;
5730;SDS011;2890;51.950;7.668;2024-01-06T01:42:34;24.70;;;15.07;;
5730;SDS011;2890;51.950;7.668;2024-01-06T01:45:02;23.13;;;13.80;;
5730;SDS011;2890;51.950;7.668;2024-01-06T01:47:29;23.77;;;13.50;;
5730;SDS011;2890;51.950;7.668;2024-01-06T01:49:55;21.33;;;13.20;;
5730;SDS011;2890;51.950;7.668;2024-01-06T01:52:22;20.33;;;12.43;;
5730;SDS011;2890;51.950;7.668;2024-01-06T01:54:48;20.67;;;13.43;;
5730;SDS011;2890;51.950;7.668;2024-01-06T01:57:16;21.90;;;12.73;;
5730;SDS011;2890;51.950;7.668;2024-01-06T01:59:43;23.00;;;12.50;;
5730;SDS011;2890;51.950;7.668;2024-01-06T02:02:11;19.40;;;12.43;;
5730;SDS011;2890;51.950;7.668;2024-01-06T02:04:38;21.30;;;11.93;;
5730;SDS011;2890;51.950;7.668;2024-01-06T02:07:04;20.20;;;11.87;;
5730;SDS011;2890;51.950;7.668;2024-01-06T02:09:31;23.87;;;12.40;;
5730;SDS011;2890;51.950;7.668;2024-01-06T02:11:57;23.63;;;13.60;;
5730;SDS011;2890;51.950;7.668;2024-01-06T02:14:24;24.87;;;15.00;;
5730;SDS011;2890;51.950;7.668;2024-01-06T02:16:50;26.80;;;13.27;;
5730;SDS011;2890;51.950;7.668;2024-01-06T02:19:18;24.53;;;12.90;;
5730;SDS011;2890;51.950;7.668;2024-01-06T02:21:48;23.87;;;13.20;;
5730;SDS011;2890;51.950;7.668;2024-01-06T02:24:15;24.20;;;13.17;;
5730;SDS011;2890;51.950;7.668;2024-01-06T02:26:41;27.63;;;14.13;;
5730;SDS011;2890;51.950;7.668;2024-01-06T02:29:08;22.33;;;12.37;;
5730;SDS011;2890;51.950;7.668;2024-01-06T02:31:34;28.77;;;14.30;;
5730;SDS011;2890;51.950;7.668;2024-01-06T02:34:01;31.30;;;14.63;;
5730;SDS011;2890;51.950;7.668;2024-01-06T02:36:27;29.27;;;14.63;;
5730;SDS011;2890;51.950;7.668;2024-01-06T02:38:55;31.00;;;14.20;;
5730;SDS011;2890;51.950;7.668;2024-01-06T02:41:21;30.77;;;14.83;;
5730;SDS011;2890;51.950;7.668;2024-01-06T02:43:48;29.53;;;13.47;;
5730;SDS011;2890;51.950;7.668;2024-01-06T02:46:14;27.90;;;13.40;;
5730;SDS011;2890;51.950;7.668;2024-01-06T02:48:41;29.47;;;14.50;;
5730;SDS011;2890;51.950;7.668;2024-01-06T02:51:07;31.37;;;14.53;;
5730;SDS011;2890;51.950;7.668;2024-01-06T02:53:34;31.53;;;15.40;;
5730;SDS011;2890;51.950;7.668;2024-01-06T02:56:01;29.33;;;14.90;;
5730;SDS011;2890;51.950;7.668;2024-01-06T02:58:28;32.50;;;15.03;;
5730;SDS011;2890;51.950;7.668;2024-01-06T03:00:55;33.30;;;15.00;;
5730;SDS011;2890;51.950;7.668;2024-01-06T03:03:21;34.20;;;16.20;;
5730;SDS011;2890;51.950;7.668;2024-01-06T03:05:47;34.90;;;15.77;;
5730;SDS011;2890;51.950;7.668;2024-01-06T03:08:14;35.40;;;15.30;;
5730;SDS011;2890;51.950;7.668;2024-01-06T03:10:41;36.30;;;17.00;;
5730;SDS011;2890;51.950;7.668;2024-01-06T03:13:09;34.47;;;16.73;;
5730;SDS011;2890;51.950;7.668;2024-01-06T03:15:35;29.60;;;14.63;;
5730;SDS011;2890;51.950;7.668;2024-01-06T03:18:02;28.43;;;14.07;;
5730;SDS011;2890;51.950;7.668;2024-01-06T03:20:28;26.97;;;12.97;;
5730;SDS011;2890;51.950;7.668;2024-01-06T03:22:55;30.67;;;14.93;;
5730;SDS011;2890;51.950;7.668;2024-01-06T03:25:21;30.33;;;14.90;;
5730;SDS011;2890;51.950;7.668;2024-01-06T03:27:48;25.80;;;13.03;;
5730;SDS011;2890;51.950;7.668;2024-01-06T03:30:15;28.30;;;12.93;;
5730;SDS011;2890;51.950;7.668;2024-01-06T03:32:42;22.40;;;10.90;;
5730;SDS011;2890;51.950;7.668;2024-01-06T03:35:08;20.90;;;10.87;;
5730;SDS011;2890;51.950;7.668;2024-01-06T03:37:35;19.03;;;10.40;;
5730;SDS011;2890;51.950;7.668;2024-01-06T03:40:01;20.27;;;9.73;;
5730;SDS011;2890;51.950;7.668;2024-01-06T03:42:28;23.70;;;10.83;;
5730;SDS011;2890;51.950;7.668;2024-01-06T03:44:54;15.20;;;9.30;;
5730;SDS011;2890;51.950;7.668;2024-01-06T03:47:23;17.47;;;10.30;;
5730;SDS011;2890;51.950;7.668;2024-01-06T03:49:49;22.20;;;11.97;;
5730;SDS011;2890;51.950;7.668;2024-01-06T03:52:15;19.27;;;10.33;;
5730;SDS011;2890;51.950;7.668;2024-01-06T03:54:42;17.80;;;10.80;;
5730;SDS011;2890;51.950;7.668;2024-01-06T03:57:08;19.80;;;10.50;;
5730;SDS011;2890;51.950;7.668;2024-01-06T03:59:35;17.70;;;10.30;;
5730;SDS011;2890;51.950;7.668;2024-01-06T04:02:01;17.50;;;10.53;;
5730;SDS011;2890;51.950;7.668;2024-01-06T04:04:29;23.13;;;11.90;;
5730;SDS011;2890;51.950;7.668;2024-01-06T04:06:56;21.10;;;12.37;;
5730;SDS011;2890;51.950;7.668;2024-01-06T04:09:22;24.07;;;13.00;;
5730;SDS011;2890;51.950;7.668;2024-01-06T04:11:48;24.27;;;14.67;;
5730;SDS011;2890;51.950;7.668;2024-01-06T04:14:15;25.90;;;13.97;;
5730;SDS011;2890;51.950;7.668;2024-01-06T04:16:41;25.10;;;14.70;;
5730;SDS011;2890;51.950;7.668;2024-01-06T04:19:08;25.00;;;14.53;;
5730;SDS011;2890;51.950;7.668;2024-01-06T04:21:38;28.50;;;15.60;;
5730;SDS011;2890;51.950;7.668;2024-01-06T04:24:04;34.30;;;16.60;;
5730;SDS011;2890;51.950;7.668;2024-01-06T04:26:31;30.13;;;15.50;;
5730;SDS011;2890;51.950;7.668;2024-01-06T04:28:57;32.40;;;17.13;;
5730;SDS011;2890;51.950;7.668;2024-01-06T04:31:24;25.27;;;14.13;;
5730;SDS011;2890;51.950;7.668;2024-01-06T04:33:50;25.37;;;13.10;;
5730;SDS011;2890;51.950;7.668;2024-01-06T04:36:17;21.97;;;11.53;;
5730;SDS011;2890;51.950;7.668;2024-01-06T04:38:45;18.50;;;11.03;;
5730;SDS011;2890;51.950;7.668;2024-01-06T04:41:11;22.10;;;11.47;;
5730;SDS011;2890;51.950;7.668;2024-01-06T04:43:38;20.60;;;11.70;;
5730;SDS011;2890;51.950;7.668;2024-01-06T04:46:04;17.80;;;10.70;;
5730;SDS011;2890;51.950;7.668;2024-01-06T04:48:31;18.43;;;9.80;;
5730;SDS011;2890;51.950;7.668;2024-01-06T04:50:57;21.27;;;10.90;;
5730;SDS011;2890;51.950;7.668;2024-01-06T04:53:23;17.60;;;9.60;;
5730;SDS011;2890;51.950;7.668;2024-01-06T04:55:51;24.27;;;9.70;;
5730;SDS011;2890;51.950;7.668;2024-01-06T04:58:18;14.70;;;8.50;;
5730;SDS011;2890;51.950;7.668;2024-01-06T05:00:44;16.17;;;7.77;;
5730;SDS011;2890;51.950;7.668;2024-01-06T05:03:11;13.10;;;7.40;;
5730;SDS011;2890;51.950;7.668;2024-01-06T05:05:37;16.93;;;8.37;;
5730;SDS011;2890;51.950;7.668;2024-01-06T05:08:04;18.40;;;8.73;;
5730;SDS011;2890;51.950;7.668;2024-01-06T05:10:31;17.03;;;8.63;;
5730;SDS011;2890;51.950;7.668;2024-01-06T05:12:58;14.17;;;7.93;;
5730;SDS011;2890;51.950;7.668;2024-01-06T05:15:25;16.20;;;7.40;;
5730;SDS011;2890;51.950;7.668;2024-01-06T05:17:51;11.77;;;7.10;;
5730;SDS011;2890;51.950;7.668;2024-01-06T05:20:18;18.73;;;7.67;;
5730;SDS011;2890;51.950;7.668;2024-01-06T05:22:44;16.33;;;7.90;;
5730;SDS011;2890;51.950;7.668;2024-01-06T05:25:11;20.30;;;8.70;;
5730;SDS011;2890;51.950;7.668;2024-01-06T05:27:37;22.00;;;8.30;;
5730;SDS011;2890;51.950;7.668;2024-01-06T05:30:06;20.13;;;9.30;;
5730;SDS011;2890;51.950;7.668;2024-01-06T05:32:34;24.83;;;10.77;;
5730;SDS011;2890;51.950;7.668;2024-01-06T05:35:00;30.63;;;10.90;;
5730;SDS011;2890;51.950;7.668;2024-01-06T05:37:27;24.27;;;10.93;;
5730;SDS011;2890;51.950;7.668;2024-01-06T05:39:53;27.23;;;11.33;;
5730;SDS011;2890;51.950;7.668;2024-01-06T05:42:20;38.20;;;12.33;;
5730;SDS011;2890;51.950;7.668;2024-01-06T05:44:47;31.20;;;12.53;;
5730;SDS011;2890;51.950;7.668;2024-01-06T05:47:14;31.50;;;12.03;;
5730;SDS011;2890;51.950;7.668;2024-01-06T05:49:41;39.23;;;12.93;;
5730;SDS011;2890;51.950;7.668;2024-01-06T05:52:09;36.43;;;13.13;;
5730;SDS011;2890;51.950;7.668;2024-01-06T05:54:35;31.30;;;12.23;;
5730;SDS011;2890;51.950;7.668;2024-01-06T05:57:02;31.90;;;12.10;;
5730;SDS011;2890;51.950;7.668;2024-01-06T05:59:28;29.43;;;11.27;;
5730;SDS011;2890;51.950;7.668;2024-01-06T06:01:55;34.53;;;11.90;;
5730;SDS011;2890;51.950;7.668;2024-01-06T06:04:23;28.50;;;11.37;;
5730;SDS011;2890;51.950;7.668;2024-01-06T06:06:49;30.50;;;10.40;;
5730;SDS011;2890;51.950;7.668;2024-01-06T06:09:16;26.70;;;10.33;;
5730;SDS011;2890;51.950;7.668;2024-01-06T06:11:42;23.80;;;10.00;;
5730;SDS011;2890;51.950;7.668;2024-01-06T06:14:09;26.00;;;9.93;;
5730;SDS011;2890;51.950;7.668;2024-01-06T06:16:35;24.80;;;9.90;;
5730;SDS011;2890;51.950;7.668;2024-01-06T06:19:02;24.33;;;10.10;;
5730;SDS011;2890;51.950;7.668;2024-01-06T06:21:29;23.07;;;10.67;;
5730;SDS011;2890;51.950;7.668;2024-01-06T06:23:56;27.77;;;10.10;;
5730;SDS011;2890;51.950;7.668;2024-01-06T06:26:22;34.30;;;11.57;;
5730;SDS011;2890;51.950;7.668;2024-01-06T06:28:49;24.73;;;11.07;;
5730;SDS011;2890;51.950;7.668;2024-01-06T06:31:15;27.47;;;11.03;;
5730;SDS011;2890;51.950;7.668;2024-01-06T06:33:42;28.37;;;11.47;;
5730;SDS011;2890;51.950;7.668;2024-01-06T06:36:08;29.13;;;12.00;;
5730;SDS011;2890;51.950;7.668;2024-01-06T06:38:36;31.43;;;12.10;;
5730;SDS011;2890;51.950;7.668;2024-01-06T06:41:03;31.80;;;12.47;;
5730;SDS011;2890;51.950;7.668;2024-01-06T06:43:29;36.40;;;12.90;;
5730;SDS011;2890;51.950;7.668;2024-01-06T06:45:56;28.70;;;11.40;;
5730;SDS011;2890;51.950;7.668;2024-01-06T06:48:22;35.47;;;12.33;;
5730;SDS011;2890;51.950;7.668;2024-01-06T06:50:49;34.40;;;13.37;;
5730;SDS011;2890;51.950;7.668;2024-01-06T06:53:15;30.70;;;11.57;;
5730;SDS011;2890;51.950;7.668;2024-01-06T06:55:43;33.83;;;11.67;;
5730;SDS011;2890;51.950;7.668;2024-01-06T06:58:10;33.13;;;12.83;;
5730;SDS011;2890;51.950;7.668;2024-01-06T07:00:37;31.33;;;12.03;;
5730;SDS011;2890;51.950;7.668;2024-01-06T07:03:04;31.77;;;12.47;;
5730;SDS011;2890;51.950;7.668;2024-01-06T07:05:30;26.77;;;12.27;;
5730;SDS011;2890;51.950;7.668;2024-01-06T07:07:59;34.60;;;12.50;;
5730;SDS011;2890;51.950;7.668;2024-01-06T07:10:26;32.90;;;13.03;;
5730;SDS011;2890;51.950;7.668;2024-01-06T07:12:54;36.50;;;13.40;;
5730;SDS011;2890;51.950;7.668;2024-01-06T07:15:20;42.67;;;14.30;;
5730;SDS011;2890;51.950;7.668;2024-01-06T07:17:47;34.93;;;12.20;;
5730;SDS011;2890;51.950;7.668;2024-01-06T07:20:13;42.87;;;13.83;;
5730;SDS011;2890;51.950;7.668;2024-01-06T07:22:40;39.30;;;13.73;;
5730;SDS011;2890;51.950;7.668;2024-01-06T07:25:07;37.07;;;14.00;;
5730;SDS011;2890;51.950;7.668;2024-01-06T07:27:33;37.87;;;14.33;;
5730;SDS011;2890;51.950;7.668;2024-01-06T07:30:01;39.63;;;14.70;;
5730;SDS011;2890;51.950;7.668;2024-01-06T07:32:28;37.80;;;14.23;;
5730;SDS011;2890;51.950;7.668;2024-01-06T07:34:54;40.23;;;14.30;;
5730;SDS011;2890;51.950;7.668;2024-01-06T07:37:20;38.60;;;12.37;;
5730;SDS011;2890;51.950;7.668;2024-01-06T07:39:47;37.80;;;14.50;;
5730;SDS011;2890;51.950;7.668;2024-01-06T07:42:14;37.27;;;14.70;;
5730;SDS011;2890;51.950;7.668;2024-01-06T07:44:40;35.43;;;15.27;;
5730;SDS011;2890;51.950;7.668;2024-01-06T07:47:08;36.97;;;13.70;;
5730;SDS011;2890;51.950;7.668;2024-01-06T07:49:34;33.00;;;13.57;;
5730;SDS011;2890;51.950;7.668;2024-01-06T07:52:01;44.93;;;16.63;;
5730;SDS011;2890;51.950;7.668;2024-01-06T07:54:28;46.47;;;15.90;;
5730;SDS011;2890;51.950;7.668;2024-01-06T07:56:55;38.70;;;14.33;;
5730;SDS011;2890;51.950;7.668;2024-01-06T07:59:22;41.43;;;15.60;;
5730;SDS011;2890;51.950;7.668;2024-01-06T08:01:48;46.37;;;14.90;;
5730;SDS011;2890;51.950;7.668;2024-01-06T08:04:16;38.20;;;15.27;;
5730;SDS011;2890;51.950;7.668;2024-01-06T08:06:43;36.47;;;14.17;;
5730;SDS011;2890;51.950;7.668;2024-01-06T08:09:09;41.93;;;14.57;;
5730;SDS011;2890;51.950;7.668;2024-01-06T08:11:36;38.47;;;13.60;;
5730;SDS011;2890;51.950;7.668;2024-01-06T08:14:02;37.37;;;14.87;;
5730;SDS011;2890;51.950;7.668;2024-01-06T08:16:29;39.23;;;14.00;;
5730;SDS011;2890;51.950;7.668;2024-01-06T08:18:55;39.83;;;12.87;;
5730;SDS011;2890;51.950;7.668;2024-01-06T08:21:23;44.60;;;14.20;;
5730;SDS011;2890;51.950;7.668;2024-01-06T08:23:50;39.50;;;14.17;;
5730;SDS011;2890;51.950;7.668;2024-01-06T08:26:16;50.03;;;14.90;;
5730;SDS011;2890;51.950;7.668;2024-01-06T08:28:42;42.67;;;15.63;;
5730;SDS011;2890;51.950;7.668;2024-01-06T08:31:09;49.50;;;15.57;;
5730;SDS011;2890;51.950;7.668;2024-01-06T08:33:35;44.00;;;15.90;;
5730;SDS011;2890;51.950;7.668;2024-01-06T08:36:02;54.53;;;16.77;;
5730;SDS011;2890;51.950;7.668;2024-01-06T08:38:30;54.63;;;17.10;;
5730;SDS011;2890;51.950;7.668;2024-01-06T08:40:57;56.43;;;18.33;;
5730;SDS011;2890;51.950;7.668;2024-01-06T08:43:23;56.93;;;18.47;;
5730;SDS011;2890;51.950;7.668;2024-01-06T08:45:50;67.90;;;18.50;;
5730;SDS011;2890;51.950;7.668;2024-01-06T08:48:16;58.93;;;17.40;;
5730;SDS011;2890;51.950;7.668;2024-01-06T08:50:43;59.00;;;17.30;;
5730;SDS011;2890;51.950;7.668;2024-01-06T08:53:10;59.53;;;18.47;;
5730;SDS011;2890;51.950;7.668;2024-01-06T08:55:38;56.97;;;18.97;;
5730;SDS011;2890;51.950;7.668;2024-01-06T08:58:05;53.23;;;18.77;;
5730;SDS011;2890;51.950;7.668;2024-01-06T09:00:31;55.07;;;17.23;;
5730;SDS011;2890;51.950;7.668;2024-01-06T09:02:57;57.43;;;17.30;;
5730;SDS011;2890;51.950;7.668;2024-01-06T09:05:24;54.23;;;16.93;;
5730;SDS011;2890;51.950;7.668;2024-01-06T09:07:51;39.23;;;14.43;;
5730;SDS011;2890;51.950;7.668;2024-01-06T09:10:18;36.97;;;16.67;;
5730;SDS011;2890;51.950;7.668;2024-01-06T09:12:45;37.30;;;14.27;;
5730;SDS011;2890;51.950;7.668;2024-01-06T09:15:12;49.97;;;13.97;;
5730;SDS011;2890;51.950;7.668;2024-01-06T09:17:39;41.17;;;13.67;;
5730;SDS011;2890;51.950;7.668;2024-01-06T09:20:06;40.10;;;13.43;;
5730;SDS011;2890;51.950;7.668;2024-01-06T09:22:33;28.90;;;12.27;;
5730;SDS011;2890;51.950;7.668;2024-01-06T09:24:59;27.20;;;11.40;;
5730;SDS011;2890;51.950;7.668;2024-01-06T09:27:26;30.00;;;11.30;;
5730;SDS011;2890;51.950;7.668;2024-01-06T09:29:54;29.40;;;11.13;;
5730;SDS011;2890;51.950;7.668;2024-01-06T09:32:20;24.83;;;10.60;;
5730;SDS011;2890;51.950;7.668;2024-01-06T09:34:48;28.73;;;10.63;;
5730;SDS011;2890;51.950;7.668;2024-01-06T09:37:14;36.20;;;12.10;;
5730;SDS011;2890;51.950;7.668;2024-01-06T09:39:41;32.17;;;11.57;;
5730;SDS011;2890;51.950;7.668;2024-01-06T09:42:07;25.80;;;11.80;;
5730;SDS011;2890;51.950;7.668;2024-01-06T09:44:35;29.07;;;11.47;;
5730;SDS011;2890;51.950;7.668;2024-01-06T09:47:04;26.57;;;12.23;;
5730;SDS011;2890;51.950;7.668;2024-01-06T09:49:31;28.20;;;12.13;;
5730;SDS011;2890;51.950;7.668;2024-01-06T09:51:59;21.40;;;10.73;;
5730;SDS011;2890;51.950;7.668;2024-01-06T09:54:25;23.70;;;11.10;;
5730;SDS011;2890;51.950;7.668;2024-01-06T09:56:58;21.97;;;10.40;;
5730;SDS011;2890;51.950;7.668;2024-01-06T09:59:25;21.10;;;10.00;;
5730;SDS011;2890;51.950;7.668;2024-01-06T10:01:51;23.53;;;10.43;;
5730;SDS011;2890;51.950;7.668;2024-01-06T10:04:19;27.90;;;11.07;;
5730;SDS011;2890;51.950;7.668;2024-01-06T10:06:46;17.57;;;8.80;;
5730;SDS011;2890;51.950;7.668;2024-01-06T10:09:12;22.87;;;9.37;;
5730;SDS011;2890;51.950;7.668;2024-01-06T10:11:39;25.83;;;10.50;;
5730;SDS011;2890;51.950;7.668;2024-01-06T10:14:06;20.40;;;9.27;;
5730;SDS011;2890;51.950;7.668;2024-01-06T10:16:33;22.40;;;10.87;;
5730;SDS011;2890;51.950;7.668;2024-01-06T10:19:00;27.27;;;11.40;;
5730;SDS011;2890;51.950;7.668;2024-01-06T10:21:28;22.57;;;10.87;;
5730;SDS011;2890;51.950;7.668;2024-01-06T10:23:56;23.93;;;10.87;;
5730;SDS011;2890;51.950;7.668;2024-01-06T10:26:22;22.60;;;10.60;;
5730;SDS011;2890;51.950;7.668;2024-01-06T10:28:49;28.73;;;12.80;;
5730;SDS011;2890;51.950;7.668;2024-01-06T10:31:16;26.40;;;12.10;;
5730;SDS011;2890;51.950;7.668;2024-01-06T10:33:42;25.63;;;11.37;;
5730;SDS011;2890;51.950;7.668;2024-01-06T10:36:09;21.93;;;11.10;;
5730;SDS011;2890;51.950;7.668;2024-01-06T10:38:37;23.60;;;10.50;;
5730;SDS011;2890;51.950;7.668;2024-01-06T10:41:04;26.50;;;10.67;;
5730;SDS011;2890;51.950;7.668;2024-01-06T10:43:32;20.93;;;10.07;;
5730;SDS011;2890;51.950;7.668;2024-01-06T10:46:01;21.43;;;10.90;;
5730;SDS011;2890;51.950;7.668;2024-01-06T10:48:29;20.63;;;9.67;;
5730;SDS011;2890;51.950;7.668;2024-01-06T10:50:56;26.40;;;10.90;;
5730;SDS011;2890;51.950;7.668;2024-01-06T10:53:24;26.53;;;10.63;;
5730;SDS011;2890;51.950;7.668;2024-01-06T10:55:54;25.20;;;10.30;;
5730;SDS011;2890;51.950;7.668;2024-01-06T10:58:20;25.10;;;10.27;;
5730;SDS011;2890;51.950;7.668;2024-01-06T11:00:47;23.77;;;10.43;;
5730;SDS011;2890;51.950;7.668;2024-01-06T11:03:14;20.50;;;10.27;;
5730;SDS011;2890;51.950;7.668;2024-01-06T11:05:41;24.40;;;10.10;;
5730;SDS011;2890;51.950;7.668;2024-01-06T11:08:08;26.90;;;11.50;;
5730;SDS011;2890;51.950;7.668;2024-01-06T11:10:35;23.63;;;11.03;;
5730;SDS011;2890;51.950;7.668;2024-01-06T11:13:07;18.33;;;8.90;;
5730;SDS011;2890;51.950;7.668;2024-01-06T11:15:44;15.60;;;8.10;;
5730;SDS011;2890;51.950;7.668;2024-01-06T11:21:13;13.27;;;7.70;;
5730;SDS011;2890;51.950;7.668;2024-01-06T11:23:42;14.07;;;8.10;;
5730;SDS011;2890;51.950;7.668;2024-01-06T11:26:09;13.73;;;7.70;;
5730;SDS011;2890;51.950;7.668;2024-01-06T11:28:44;19.17;;;8.00;;
5730;SDS011;2890;51.950;7.668;2024-01-06T11:31:11;18.17;;;8.40;;
5730;SDS011;2890;51.950;7.668;2024-01-06T11:33:40;17.80;;;7.57;;
5730;SDS011;2890;51.950;7.668;2024-01-06T11:36:08;13.73;;;8.40;;
5730;SDS011;2890;51.950;7.668;2024-01-06T11:38:37;13.47;;;6.70;;
5730;SDS011;2890;51.950;7.668;2024-01-06T11:41:03;13.53;;;6.77;;
5730;SDS011;2890;51.950;7.668;2024-01-06T11:43:30;11.00;;;6.17;;
5730;SDS011;2890;51.950;7.668;2024-01-06T11:46:01;15.27;;;7.50;;
5730;SDS011;2890;51.950;7.668;2024-01-06T11:48:29;15.80;;;8.37;;
5730;SDS011;2890;51.950;7.668;2024-01-06T11:50:56;23.90;;;9.63;;
5730;SDS011;2890;51.950;7.668;2024-01-06T11:53:23;17.57;;;9.37;;
5730;SDS011;2890;51.950;7.668;2024-01-06T11:55:52;23.07;;;10.70;;
5730;SDS011;2890;51.950;7.668;2024-01-06T11:58:19;18.87;;;9.40;;
5730;SDS011;2890;51.950;7.668;2024-01-06T12:00:54;16.40;;;9.50;;
5730;SDS011;2890;51.950;7.668;2024-01-06T12:03:22;17.53;;;8.70;;
5730;SDS011;2890;51.950;7.668;2024-01-06T12:05:58;18.93;;;9.13;;
5730;SDS011;2890;51.950;7.668;2024-01-06T12:08:25;16.43;;;8.50;;
5730;SDS011;2890;51.950;7.668;2024-01-06T12:11:01;12.97;;;7.60;;
5730;SDS011;2890;51.950;7.668;2024-01-06T12:13:28;13.00;;;7.40;;
5730;SDS011;2890;51.950;7.668;2024-01-06T12:15:54;18.57;;;9.07;;
5730;SDS011;2890;51.950;7.668;2024-01-06T12:18:22;16.03;;;8.67;;
5730;SDS011;2890;51.950;7.668;2024-01-06T12:20:50;22.70;;;10.20;;
5730;SDS011;2890;51.950;7.668;2024-01-06T12:23:23;19.43;;;8.97;;
5730;SDS011;2890;51.950;7.668;2024-01-06T12:25:50;13.90;;;8.50;;
5730;SDS011;2890;51.950;7.668;2024-01-06T12:28:18;12.73;;;8.70;;
5730;SDS011;2890;51.950;7.668;2024-01-06T12:30:45;14.87;;;8.33;;
5730;SDS011;2890;51.950;7.668;2024-01-06T12:33:11;13.67;;;7.70;;
5730;SDS011;2890;51.950;7.668;2024-01-06T12:35:40;17.83;;;9.03;;
5730;SDS011;2890;51.950;7.668;2024-01-06T12:38:08;19.40;;;9.10;;
5730;SDS011;2890;51.950;7.668;2024-01-06T12:40:35;12.93;;;8.53;;
5730;SDS011;2890;51.950;7.668;2024-01-06T12:43:01;15.70;;;9.20;;
5730;SDS011;2890;51.950;7.668;2024-01-06T12:45:28;14.43;;;8.57;;
5730;SDS011;2890;51.950;7.668;2024-01-06T12:47:54;13.87;;;7.47;;
5730;SDS011;2890;51.950;7.668;2024-01-06T12:50:21;17.10;;;8.73;;
5730;SDS011;2890;51.950;7.668;2024-01-06T12:52:49;20.17;;;9.20;;
5730;SDS011;2890;51.950;7.668;2024-01-06T12:55:15;18.17;;;9.30;;
5730;SDS011;2890;51.950;7.668;2024-01-06T12:57:42;21.77;;;11.37;;
5730;SDS011;2890;51.950;7.668;2024-01-06T13:00:09;21.30;;;10.70;;
5730;SDS011;2890;51.950;7.668;2024-01-06T13:02:37;24.57;;;11.90;;
5730;SDS011;2890;51.950;7.668;2024-01-06T13:05:03;19.30;;;10.47;;
5730;SDS011;2890;51.950;7.668;2024-01-06T13:07:30;20.50;;;10.60;;
5730;SDS011;2890;51.950;7.668;2024-01-06T13:09:58;19.37;;;10.30;;
5730;SDS011;2890;51.950;7.668;2024-01-06T13:12:24;18.10;;;10.20;;
5730;SDS011;2890;51.950;7.668;2024-01-06T13:14:54;20.23;;;9.67;;
5730;SDS011;2890;51.950;7.668;2024-01-06T13:17:20;15.27;;;8.13;;
5730;SDS011;2890;51.950;7.668;2024-01-06T13:19:46;17.23;;;10.33;;
5730;SDS011;2890;51.950;7.668;2024-01-06T13:22:13;18.03;;;9.90;;
5730;SDS011;2890;51.950;7.668;2024-01-06T13:24:41;17.87;;;9.00;;
5730;SDS011;2890;51.950;7.668;2024-01-06T13:27:09;17.23;;;9.83;;
5730;SDS011;2890;51.950;7.668;2024-01-06T13:29:35;19.40;;;10.33;;
5730;SDS011;2890;51.950;7.668;2024-01-06T13:32:02;20.00;;;10.53;;
5730;SDS011;2890;51.950;7.668;2024-01-06T13:34:30;17.30;;;9.30;;
5730;SDS011;2890;51.950;7.668;2024-01-06T13:36:56;24.40;;;10.60;;
5730;SDS011;2890;51.950;7.668;2024-01-06T13:39:23;20.87;;;11.50;;
5730;SDS011;2890;51.950;7.668;2024-01-06T13:41:49;22.07;;;11.23;;
5730;SDS011;2890;51.950;7.668;2024-01-06T13:44:17;24.37;;;12.23;;
5730;SDS011;2890;51.950;7.668;2024-01-06T13:46:44;23.93;;;12.10;;
5730;SDS011;2890;51.950;7.668;2024-01-06T13:49:11;24.47;;;11.00;;
5730;SDS011;2890;51.950;7.668;2024-01-06T13:51:37;25.83;;;12.23;;
5730;SDS011;2890;51.950;7.668;2024-01-06T13:54:04;22.03;;;10.53;;
5730;SDS011;2890;51.950;7.668;2024-01-06T13:56:31;19.90;;;11.30;;
5730;SDS011;2890;51.950;7.668;2024-01-06T13:58:57;20.10;;;11.13;;
5730;SDS011;2890;51.950;7.668;2024-01-06T14:01:25;21.20;;;10.10;;
5730;SDS011;2890;51.950;7.668;2024-01-06T14:03:52;24.00;;;11.80;;
5730;SDS011;2890;51.950;7.668;2024-01-06T14:06:22;19.60;;;10.60;;
5730;SDS011;2890;51.950;7.668;2024-01-06T14:08:49;20.60;;;11.13;;
5730;SDS011;2890;51.950;7.668;2024-01-06T14:11:17;18.37;;;10.27;;
5730;SDS011;2890;51.950;7.668;2024-01-06T14:13:44;21.10;;;11.30;;
5730;SDS011;2890;51.950;7.668;2024-01-06T14:16:13;20.40;;;11.67;;
5730;SDS011;2890;51.950;7.668;2024-01-06T14:18:41;17.93;;;10.80;;
5730;SDS011;2890;51.950;7.668;2024-01-06T14:21:08;19.77;;;10.20;;
5730;SDS011;2890;51.950;7.668;2024-01-06T14:23:35;17.70;;;9.67;;
5730;SDS011;2890;51.950;7.668;2024-01-06T14:26:01;20.80;;;11.23;;
5730;SDS011;2890;51.950;7.668;2024-01-06T14:28:28;20.93;;;11.00;;
5730;SDS011;2890;51.950;7.668;2024-01-06T14:30:55;19.57;;;10.33;;
5730;SDS011;2890;51.950;7.668;2024-01-06T14:33:21;24.70;;;11.67;;
5730;SDS011;2890;51.950;7.668;2024-01-06T14:35:49;22.57;;;11.70;;
5730;SDS011;2890;51.950;7.668;2024-01-06T14:38:16;25.90;;;13.40;;
5730;SDS011;2890;51.950;7.668;2024-01-06T14:40:42;27.87;;;13.60;;
5730;SDS011;2890;51.950;7.668;2024-01-06T14:43:09;32.67;;;17.57;;
5730;SDS011;2890;51.950;7.668;2024-01-06T14:45:35;26.40;;;13.60;;
5730;SDS011;2890;51.950;7.668;2024-01-06T14:48:02;31.70;;;15.27;;
5730;SDS011;2890;51.950;7.668;2024-01-06T14:50:28;27.80;;;14.90;;
5730;SDS011;2890;51.950;7.668;2024-01-06T14:52:56;29.27;;;14.37;;